createdAt,value
2019-01-28T00:00:38.853Z,0.90
2019-01-28T00:03:08.758Z,0.88
2019-01-28T00:05:37.832Z,0.90
2019-01-28T00:08:06.941Z,0.92
2019-01-28T00:10:36.026Z,0.92
2019-01-28T00:13:05.162Z,0.90
2019-01-28T00:15:34.254Z,0.93
2019-01-28T00:18:03.342Z,0.98
2019-01-28T00:20:32.406Z,0.91
2019-01-28T00:23:01.497Z,0.86
2019-01-28T00:25:30.766Z,0.81
2019-01-28T00:27:59.866Z,0.84
2019-01-28T00:30:28.936Z,0.76
2019-01-28T00:32:58.034Z,0.75
2019-01-28T00:35:27.126Z,0.77
2019-01-28T00:37:56.220Z,0.69
2019-01-28T00:40:25.289Z,0.70
2019-01-28T00:42:54.403Z,0.71
2019-01-28T00:45:23.506Z,0.70
2019-01-28T00:47:52.620Z,0.75
2019-01-28T00:50:21.693Z,0.88
2019-01-28T00:52:50.795Z,0.83
2019-01-28T00:55:19.874Z,0.81
2019-01-28T00:57:48.970Z,0.77
2019-01-28T01:00:20.131Z,0.75
2019-01-28T01:02:49.229Z,0.75
2019-01-28T01:05:18.410Z,0.74
2019-01-28T01:07:47.520Z,0.78
2019-01-28T01:10:16.725Z,0.68
2019-01-28T01:12:45.821Z,0.70
2019-01-28T01:15:15.601Z,0.68
2019-01-28T01:17:44.698Z,0.68
2019-01-28T01:20:15.256Z,0.71
2019-01-28T01:22:44.427Z,0.70
2019-01-28T01:25:14.398Z,0.73
2019-01-28T01:27:43.535Z,0.73
2019-01-28T01:30:15.030Z,0.73
2019-01-28T01:32:44.149Z,0.70
2019-01-28T01:35:13.279Z,0.60
2019-01-28T01:37:42.399Z,0.55
2019-01-28T01:40:13.704Z,0.60
2019-01-28T01:42:42.815Z,0.64
2019-01-28T01:45:14.111Z,0.70
2019-01-28T01:47:43.214Z,0.72
2019-01-28T01:50:12.467Z,0.78
2019-01-28T01:52:41.579Z,0.80
2019-01-28T01:55:11.998Z,0.74
2019-01-28T01:57:41.084Z,0.78
2019-01-28T02:00:12.964Z,0.79
2019-01-28T02:02:42.036Z,0.76
2019-01-28T02:05:11.234Z,0.77
2019-01-28T02:07:40.333Z,0.71
2019-01-28T02:10:11.590Z,0.71
2019-01-28T02:12:40.668Z,0.65
2019-01-28T02:15:12.368Z,0.68
2019-01-28T02:17:41.441Z,0.66
2019-01-28T02:20:10.645Z,0.67
2019-01-28T02:22:39.716Z,0.71
2019-01-28T02:25:09.370Z,0.75
2019-01-28T02:27:38.475Z,0.74
2019-01-28T02:30:08.698Z,0.77
2019-01-28T02:32:37.794Z,0.70
2019-01-28T02:35:07.597Z,0.69
2019-01-28T02:37:36.697Z,0.70
2019-01-28T02:40:08.760Z,0.72
2019-01-28T02:42:37.852Z,0.69
2019-01-28T02:45:07.887Z,0.65
2019-01-28T02:47:36.966Z,0.66
2019-01-28T02:50:07.803Z,0.68
2019-01-28T02:52:36.899Z,0.70
2019-01-28T02:55:06.811Z,0.69
2019-01-28T02:57:35.897Z,0.72
2019-01-28T03:00:07.454Z,0.67
2019-01-28T03:02:36.535Z,0.66
2019-01-28T03:05:06.263Z,0.75
2019-01-28T03:07:35.355Z,0.70
2019-01-28T03:10:05.577Z,0.72
2019-01-28T03:12:34.664Z,0.64
2019-01-28T03:15:03.769Z,0.68
2019-01-28T03:17:32.848Z,0.65
2019-01-28T03:20:01.946Z,0.70
2019-01-28T03:22:31.032Z,0.63
2019-01-28T03:25:00.313Z,0.67
2019-01-28T03:27:29.380Z,0.69
2019-01-28T03:29:58.486Z,0.66
2019-01-28T03:32:27.568Z,0.67
2019-01-28T03:34:56.658Z,0.69
2019-01-28T03:37:25.739Z,0.68
2019-01-28T03:39:54.839Z,0.71
2019-01-28T03:42:23.915Z,0.66
2019-01-28T03:44:53.018Z,0.59
2019-01-28T03:47:22.131Z,0.66
2019-01-28T03:49:51.225Z,0.58
2019-01-28T03:52:20.476Z,0.61
2019-01-28T03:54:49.604Z,0.58
2019-01-28T03:57:18.686Z,0.56
2019-01-28T03:59:47.780Z,0.57
2019-01-28T04:02:16.854Z,0.55
2019-01-28T04:04:45.957Z,0.55
2019-01-28T04:07:15.038Z,0.59
2019-01-28T04:09:44.126Z,0.60
2019-01-28T04:12:13.217Z,0.58
2019-01-28T04:14:42.299Z,0.59
2019-01-28T04:17:11.398Z,0.59
2019-01-28T04:19:40.468Z,0.59
2019-01-28T04:22:09.573Z,0.63
2019-01-28T04:24:38.645Z,0.61
2019-01-28T04:27:07.748Z,0.64
2019-01-28T04:29:36.827Z,0.61
2019-01-28T04:32:05.992Z,0.59
2019-01-28T04:34:35.072Z,0.64
2019-01-28T04:37:04.169Z,0.60
2019-01-28T04:39:33.237Z,0.62
2019-01-28T04:42:02.328Z,0.63
2019-01-28T04:44:31.404Z,0.66
2019-01-28T04:47:00.566Z,0.60
2019-01-28T04:49:29.589Z,0.63
2019-01-28T04:51:58.694Z,0.62
2019-01-28T04:54:27.763Z,0.62
2019-01-28T04:56:56.869Z,0.55
2019-01-28T04:59:25.954Z,0.58
2019-01-28T05:01:55.054Z,0.57
2019-01-28T05:04:24.129Z,0.58
2019-01-28T05:06:53.250Z,0.57
2019-01-28T05:09:22.330Z,0.58
2019-01-28T05:11:51.421Z,0.62
2019-01-28T05:14:20.560Z,0.62
2019-01-28T05:16:49.612Z,0.61
2019-01-28T05:19:18.687Z,0.63
2019-01-28T05:21:47.757Z,0.61
2019-01-28T05:24:18.831Z,0.59
2019-01-28T05:26:47.930Z,0.68
2019-01-28T05:29:17.054Z,0.79
2019-01-28T05:31:46.137Z,0.70
2019-01-28T05:34:15.238Z,0.63
2019-01-28T05:36:44.326Z,0.57
2019-01-28T05:39:13.420Z,0.57
2019-01-28T05:41:42.505Z,0.59
2019-01-28T05:44:11.638Z,0.57
2019-01-28T05:46:40.733Z,0.53
2019-01-28T05:49:09.834Z,0.53
2019-01-28T05:51:38.911Z,0.54
2019-01-28T05:54:08.008Z,0.54
2019-01-28T05:56:37.093Z,0.55
2019-01-28T05:59:06.223Z,0.53
2019-01-28T06:01:35.299Z,0.53
2019-01-28T06:04:04.711Z,0.47
2019-01-28T06:06:33.878Z,0.48
2019-01-28T06:09:03.900Z,0.42
2019-01-28T06:11:32.996Z,0.40
2019-01-28T06:14:02.100Z,0.39
2019-01-28T06:16:31.192Z,0.38
2019-01-28T06:19:00.302Z,0.33
2019-01-28T06:21:29.382Z,0.27
2019-01-28T06:23:58.489Z,0.29
2019-01-28T06:26:27.569Z,0.27
2019-01-28T06:28:56.645Z,0.26
2019-01-28T06:31:25.741Z,0.26
2019-01-28T06:33:54.868Z,0.25
2019-01-28T06:36:23.970Z,0.25
2019-01-28T06:38:53.049Z,0.23
2019-01-28T06:41:22.161Z,0.24
2019-01-28T12:11:15.179Z,0.24
2019-01-28T12:14:09.776Z,0.24
2019-01-28T12:18:20.820Z,0.24
2019-01-28T12:22:42.683Z,0.24
2019-01-28T12:28:59.699Z,0.24
2019-01-28T12:31:28.784Z,0.24
2019-01-28T12:33:57.910Z,1.43
2019-01-28T12:36:26.991Z,1.24
2019-01-28T12:38:56.099Z,1.34
2019-01-28T12:41:25.181Z,1.34
2019-01-28T12:43:54.293Z,1.24
2019-01-28T12:46:23.406Z,1.38
2019-01-28T12:48:52.529Z,1.48
2019-01-28T12:51:21.618Z,1.37
2019-01-28T12:53:50.760Z,1.27
2019-01-28T12:56:19.826Z,1.54
2019-01-28T12:58:50.057Z,1.45
2019-01-28T13:01:19.196Z,1.40
2019-01-28T13:03:48.311Z,1.43
2019-01-28T13:06:17.395Z,1.41
2019-01-28T13:08:46.508Z,1.40
2019-01-28T13:11:15.600Z,1.41
2019-01-28T13:13:44.726Z,1.32
2019-01-28T13:16:13.819Z,1.39
2019-01-28T13:18:42.934Z,1.43
2019-01-28T13:21:12.024Z,1.57
2019-01-28T13:23:42.940Z,1.53
2019-01-28T13:26:12.090Z,1.59
2019-01-28T13:28:41.177Z,1.71
2019-01-28T13:31:10.277Z,1.66
2019-01-28T13:33:39.464Z,1.67
2019-01-28T13:36:09.547Z,1.72
2019-01-28T13:38:38.826Z,1.69
2019-01-28T13:41:07.928Z,1.90
2019-01-28T13:43:37.013Z,1.83
2019-01-28T13:46:06.167Z,1.87
2019-01-28T13:48:35.266Z,1.85
2019-01-28T13:51:04.381Z,1.66
2019-01-28T13:53:33.457Z,1.78
2019-01-28T13:56:02.581Z,1.68
2019-01-28T13:58:31.662Z,1.65
2019-01-28T14:01:00.773Z,1.70
2019-01-28T14:03:29.850Z,1.64
2019-01-28T14:05:58.958Z,1.60
2019-01-28T14:08:28.049Z,1.56
2019-01-28T14:10:57.157Z,1.84
2019-01-28T14:13:26.247Z,1.76
2019-01-28T14:15:55.355Z,1.68
2019-01-28T14:18:24.433Z,1.61
2019-01-28T14:20:55.208Z,1.52
2019-01-28T14:23:24.292Z,1.60
2019-01-28T14:25:53.397Z,1.59
2019-01-28T14:28:22.544Z,1.55
2019-01-28T14:30:51.652Z,1.49
2019-01-28T14:33:20.750Z,1.42
2019-01-28T14:35:49.833Z,1.39
2019-01-28T14:38:18.921Z,1.33
2019-01-28T14:40:48.458Z,1.32
2019-01-28T14:43:17.542Z,1.30
2019-01-28T14:45:46.665Z,1.26
2019-01-28T14:48:15.757Z,1.28
2019-01-28T14:50:44.867Z,1.35
2019-01-28T14:53:14.064Z,1.32
2019-01-28T14:55:43.175Z,1.41
2019-01-28T14:58:16.525Z,1.21
2019-01-28T15:00:45.805Z,1.14
2019-01-28T15:03:14.894Z,1.11
2019-01-28T15:05:44.042Z,1.01
2019-01-28T15:08:13.122Z,0.98
2019-01-28T15:10:42.232Z,0.91
2019-01-28T15:13:11.327Z,0.95
2019-01-28T15:15:40.769Z,0.90
2019-01-28T15:18:12.398Z,0.98
2019-01-28T15:20:41.503Z,0.97
2019-01-28T15:23:10.593Z,0.90
2019-01-28T15:25:39.718Z,1.00
2019-01-28T15:28:08.798Z,0.78
2019-01-28T15:30:38.145Z,0.82
2019-01-28T15:33:07.282Z,0.71
2019-01-28T15:35:36.361Z,0.78
2019-01-28T15:38:05.715Z,0.69
2019-01-28T15:40:35.597Z,0.66
2019-01-28T15:43:04.995Z,0.78
2019-01-28T15:45:36.296Z,0.70
2019-01-28T15:48:06.147Z,0.74
2019-01-28T15:50:35.566Z,0.66
2019-01-28T15:53:05.059Z,0.62
2019-01-28T15:55:36.126Z,0.68
2019-01-28T15:58:05.738Z,0.73
2019-01-28T16:00:35.258Z,0.67
2019-01-28T16:03:06.703Z,0.62
2019-01-28T16:05:35.887Z,0.63
2019-01-28T16:08:05.281Z,0.55
2019-01-28T16:10:34.368Z,0.64
2019-01-28T16:13:03.477Z,0.58
2019-01-28T16:15:38.061Z,0.52
2019-01-28T16:18:09.052Z,0.56
2019-01-28T16:20:38.194Z,0.62
2019-01-28T16:23:08.056Z,0.53
2019-01-28T16:25:37.442Z,0.60
2019-01-28T16:28:06.878Z,0.49
2019-01-28T16:30:36.261Z,0.55
2019-01-28T16:33:06.020Z,0.52
2019-01-28T16:35:35.105Z,0.57
2019-01-28T16:38:04.618Z,0.55
2019-01-28T16:40:34.175Z,0.49
2019-01-28T16:43:03.283Z,0.48
2019-01-28T16:45:32.403Z,0.49
2019-01-28T16:48:01.517Z,0.46
2019-01-28T16:50:31.266Z,0.53
2019-01-28T16:53:00.373Z,0.53
2019-01-28T16:55:29.450Z,0.47
2019-01-28T16:57:59.156Z,0.56
2019-01-28T17:00:33.081Z,0.55
2019-01-28T17:03:02.188Z,0.50
2019-01-28T17:05:32.380Z,0.59
2019-01-28T17:08:01.558Z,0.51
2019-01-28T17:10:30.692Z,0.47
2019-01-28T17:12:59.807Z,0.36
2019-01-28T17:15:28.911Z,0.54
2019-01-28T17:17:58.028Z,0.39
2019-01-28T17:20:35.187Z,0.37
2019-01-28T17:22:59.401Z,0.43
2019-01-28T17:25:33.674Z,0.31
2019-01-28T17:28:02.790Z,0.29
2019-01-28T17:30:41.318Z,0.33
2019-01-28T17:33:10.638Z,0.38
2019-01-28T17:35:39.766Z,0.47
2019-01-28T17:38:10.175Z,0.45
2019-01-28T17:40:42.296Z,0.48
2019-01-28T17:43:12.538Z,0.43
2019-01-28T17:45:41.670Z,0.46
2019-01-28T17:48:10.968Z,0.43
2019-01-28T17:50:43.633Z,0.48
2019-01-28T17:53:12.115Z,0.38
2019-01-28T17:55:41.524Z,0.40
2019-01-28T17:58:10.802Z,0.38
2019-01-28T18:00:58.876Z,0.40
2019-01-28T18:03:28.019Z,0.47
2019-01-28T18:05:57.587Z,0.42
2019-01-28T18:08:26.690Z,0.36
2019-01-28T18:10:57.047Z,0.40
2019-01-28T18:13:26.154Z,0.36
2019-01-28T18:15:55.236Z,0.40
2019-01-28T18:18:24.345Z,0.40
2019-01-28T18:20:53.511Z,0.32
2019-01-28T18:23:30.329Z,0.27
2019-01-28T18:25:59.417Z,0.32
2019-01-28T18:28:28.518Z,0.33
2019-01-28T18:30:57.598Z,0.40
2019-01-28T18:33:26.681Z,0.52
2019-01-28T18:35:55.785Z,0.41
2019-01-28T18:38:24.869Z,0.23
2019-01-28T18:40:53.970Z,0.10
2019-01-28T18:43:23.060Z,-0.04
2019-01-28T18:45:52.193Z,-0.11
2019-01-28T18:48:21.282Z,-0.13
2019-01-28T18:50:50.400Z,-0.02
2019-01-28T18:53:19.485Z,-0.01
2019-01-28T18:55:48.595Z,0.19
2019-01-28T18:58:17.681Z,0.06
2019-01-28T19:00:46.795Z,0.09
2019-01-28T19:03:15.878Z,0.18
2019-01-28T19:05:58.885Z,0.13
2019-01-28T19:08:50.052Z,0.21
2019-01-28T19:11:36.184Z,0.22
2019-01-28T19:14:22.797Z,0.18
2019-01-28T19:16:59.737Z,0.20
2019-01-28T19:19:35.621Z,0.14
2019-01-28T19:22:05.585Z,0.00
2019-01-28T19:24:34.678Z,-0.07
2019-01-28T19:27:03.894Z,-0.08
2019-01-28T19:29:32.984Z,-0.11
2019-01-28T19:32:02.119Z,-0.20
2019-01-28T19:34:31.202Z,-0.28
2019-01-28T19:37:00.311Z,-0.30
2019-01-28T19:39:29.399Z,-0.35
2019-01-28T19:41:58.514Z,-0.38
2019-01-28T19:44:27.615Z,-0.32
2019-01-28T19:46:56.790Z,-0.17
2019-01-28T19:49:25.842Z,-0.17
2019-01-28T19:51:54.965Z,-0.09
2019-01-28T19:54:24.051Z,-0.18
2019-01-28T19:56:53.160Z,-0.34
2019-01-28T19:59:22.252Z,-0.32
2019-01-28T20:01:51.376Z,-0.30
2019-01-28T20:04:20.470Z,-0.29
2019-01-28T20:06:49.585Z,-0.23
2019-01-28T20:09:19.579Z,-0.27
2019-01-28T20:11:48.681Z,-0.13
2019-01-28T20:14:17.800Z,-0.01
2019-01-28T20:16:46.886Z,0.06
2019-01-28T20:19:16.006Z,0.10
2019-01-28T20:21:45.084Z,0.17
2019-01-28T20:24:14.197Z,0.17
2019-01-28T20:26:43.298Z,0.15
2019-01-28T20:29:12.383Z,0.17
2019-01-28T20:31:41.472Z,0.17
2019-01-28T20:34:10.585Z,0.18
2019-01-28T20:36:39.667Z,0.12
2019-01-28T20:39:09.936Z,0.19
2019-01-28T20:41:39.158Z,0.21
2019-01-28T20:44:08.206Z,0.26
2019-01-28T20:46:37.347Z,0.24
2019-01-28T20:49:06.588Z,0.26
2019-01-28T20:51:35.987Z,0.24
2019-01-28T20:54:05.695Z,0.27
2019-01-28T20:56:34.817Z,0.28
2019-01-28T20:59:04.006Z,0.25
2019-01-28T21:01:33.112Z,0.27
2019-01-28T21:04:02.195Z,0.30
2019-01-28T21:06:31.305Z,0.37
2019-01-28T21:09:00.479Z,0.30
2019-01-28T21:11:29.575Z,0.33
2019-01-28T21:13:58.657Z,0.34
2019-01-28T21:16:27.761Z,0.26
2019-01-28T21:18:56.856Z,0.29
2019-01-28T21:21:25.942Z,0.27
2019-01-28T21:23:55.024Z,0.27
2019-01-28T21:26:24.138Z,0.33
2019-01-28T21:28:53.225Z,0.27
2019-01-28T21:31:22.346Z,0.32
2019-01-28T21:33:51.442Z,0.40
2019-01-28T21:36:31.353Z,0.33
2019-01-28T21:39:00.437Z,0.24
2019-01-28T21:41:29.541Z,0.25
2019-01-28T21:43:58.640Z,0.22
2019-01-28T21:46:27.765Z,0.20
2019-01-28T21:48:56.850Z,0.22
2019-01-28T21:51:25.955Z,0.27
2019-01-28T21:53:55.036Z,0.23
2019-01-28T21:56:24.174Z,0.30
2019-01-28T21:58:53.256Z,0.31
2019-01-28T22:01:22.369Z,0.21
2019-01-28T22:03:51.454Z,0.21
2019-01-28T22:06:20.571Z,0.23
2019-01-28T22:08:49.655Z,0.23
2019-01-28T22:11:18.766Z,0.21
2019-01-28T22:13:47.850Z,0.35
2019-01-28T22:16:17.135Z,0.21
2019-01-28T22:18:46.231Z,0.23
2019-01-28T22:21:15.338Z,0.23
2019-01-28T22:23:44.418Z,0.22
2019-01-28T22:26:13.534Z,0.28
2019-01-28T22:28:42.618Z,0.23
2019-01-28T22:31:11.825Z,0.27
2019-01-28T22:33:40.991Z,0.29
2019-01-28T22:36:10.101Z,0.27
2019-01-28T22:38:39.285Z,0.26
2019-01-28T22:41:08.363Z,0.25
2019-01-28T22:43:37.443Z,0.27
2019-01-28T22:46:06.553Z,0.33
2019-01-28T22:48:35.652Z,0.28
2019-01-28T22:51:04.753Z,0.25
2019-01-28T22:53:33.890Z,0.38
2019-01-28T22:56:02.938Z,0.26
2019-01-28T22:58:32.009Z,0.16
2019-01-28T23:01:29.780Z,0.05
2019-01-28T23:03:58.863Z,0.11
2019-01-28T23:06:27.967Z,0.29
2019-01-28T23:08:57.045Z,0.21
2019-01-28T23:11:26.959Z,0.13
2019-01-28T23:13:56.038Z,0.16
2019-01-28T23:16:25.126Z,0.18
2019-01-28T23:18:54.241Z,0.12
2019-01-28T23:21:23.330Z,0.06
2019-01-28T23:23:52.429Z,0.09
2019-01-28T23:26:21.513Z,0.05
2019-01-28T23:28:50.640Z,0.01
2019-01-28T23:31:19.728Z,-0.04
2019-01-28T23:33:50.079Z,-0.07
2019-01-28T23:36:19.207Z,-0.06
2019-01-28T23:38:48.315Z,-0.12
2019-01-28T23:41:17.504Z,-0.09
2019-01-28T23:43:46.614Z,-0.05
2019-01-28T23:46:15.702Z,-0.03
2019-01-28T23:48:44.834Z,-0.03
2019-01-28T23:51:13.958Z,-0.03
2019-01-28T23:53:43.039Z,-0.04
2019-01-28T23:56:12.127Z,-0.03
2019-01-28T23:58:41.230Z,-0.05
